sensor_id;sensor_type;location;lat;lon;timestamp;P1;durP1;ratioP1;P2;durP2;ratioP2
4638;SDS011;2332;38.646;-9.154;2022-10-16T00:01:51;0.60;;;0.60;;
4638;SDS011;2332;38.646;-9.154;2022-10-16T00:04:16;1.17;;;0.60;;
4638;SDS011;2332;38.646;-9.154;2022-10-16T00:06:42;0.80;;;0.63;;
4638;SDS011;2332;38.646;-9.154;2022-10-16T00:09:07;0.70;;;0.70;;
4638;SDS011;2332;38.646;-9.154;2022-10-16T00:11:35;0.70;;;0.70;;
4638;SDS011;2332;38.646;-9.154;2022-10-16T00:14:05;5.03;;;0.83;;
4638;SDS011;2332;38.646;-9.154;2022-10-16T00:16:35;0.60;;;0.60;;
4638;SDS011;2332;38.646;-9.154;2022-10-16T00:19:01;3.90;;;0.70;;
4638;SDS011;2332;38.646;-9.154;2022-10-16T00:21:27;1.10;;;0.80;;
4638;SDS011;2332;38.646;-9.154;2022-10-16T00:23:55;3.77;;;0.70;;
4638;SDS011;2332;38.646;-9.154;2022-10-16T00:26:26;1.37;;;0.80;;
4638;SDS011;2332;38.646;-9.154;2022-10-16T00:28:52;2.60;;;0.80;;
4638;SDS011;2332;38.646;-9.154;2022-10-16T00:31:19;1.47;;;0.73;;
4638;SDS011;2332;38.646;-9.154;2022-10-16T00:33:46;2.50;;;0.70;;
4638;SDS011;2332;38.646;-9.154;2022-10-16T00:36:13;0.60;;;0.60;;
4638;SDS011;2332;38.646;-9.154;2022-10-16T00:38:40;1.90;;;0.83;;
4638;SDS011;2332;38.646;-9.154;2022-10-16T00:41:06;0.80;;;0.80;;
4638;SDS011;2332;38.646;-9.154;2022-10-16T00:46:31;1.07;;;0.80;;
4638;SDS011;2332;38.646;-9.154;2022-10-16T00:49:00;1.03;;;1.00;;
4638;SDS011;2332;38.646;-9.154;2022-10-16T00:51:34;0.90;;;0.90;;
4638;SDS011;2332;38.646;-9.154;2022-10-16T00:54:06;4.33;;;1.43;;
4638;SDS011;2332;38.646;-9.154;2022-10-16T00:56:43;2.90;;;1.10;;
4638;SDS011;2332;38.646;-9.154;2022-10-16T00:59:11;3.97;;;0.80;;
4638;SDS011;2332;38.646;-9.154;2022-10-16T01:01:47;1.03;;;0.93;;
4638;SDS011;2332;38.646;-9.154;2022-10-16T01:04:13;2.80;;;1.00;;
4638;SDS011;2332;38.646;-9.154;2022-10-16T01:06:43;1.47;;;0.90;;
4638;SDS011;2332;38.646;-9.154;2022-10-16T01:09:16;1.23;;;0.87;;
4638;SDS011;2332;38.646;-9.154;2022-10-16T01:14:56;2.50;;;0.80;;
4638;SDS011;2332;38.646;-9.154;2022-10-16T01:17:39;0.93;;;0.70;;
4638;SDS011;2332;38.646;-9.154;2022-10-16T01:25:36;6.67;;;0.90;;
4638;SDS011;2332;38.646;-9.154;2022-10-16T01:28:14;1.93;;;0.70;;
4638;SDS011;2332;38.646;-9.154;2022-10-16T01:30:41;2.17;;;0.80;;
4638;SDS011;2332;38.646;-9.154;2022-10-16T01:35:52;4.17;;;0.80;;
4638;SDS011;2332;38.646;-9.154;2022-10-16T01:38:21;1.57;;;0.70;;
4638;SDS011;2332;38.646;-9.154;2022-10-16T01:41:01;1.23;;;0.73;;
4638;SDS011;2332;38.646;-9.154;2022-10-16T01:43:48;2.53;;;0.90;;
4638;SDS011;2332;38.646;-9.154;2022-10-16T01:46:16;1.50;;;0.90;;
4638;SDS011;2332;38.646;-9.154;2022-10-16T01:48:44;2.90;;;1.20;;
4638;SDS011;2332;38.646;-9.154;2022-10-16T01:51:13;7.20;;;1.23;;
4638;SDS011;2332;38.646;-9.154;2022-10-16T01:53:40;5.03;;;1.00;;
4638;SDS011;2332;38.646;-9.154;2022-10-16T01:56:09;2.87;;;0.90;;
4638;SDS011;2332;38.646;-9.154;2022-10-16T01:58:42;4.03;;;0.80;;
4638;SDS011;2332;38.646;-9.154;2022-10-16T02:01:19;1.20;;;0.90;;
4638;SDS011;2332;38.646;-9.154;2022-10-16T02:03:48;6.20;;;0.90;;
4638;SDS011;2332;38.646;-9.154;2022-10-16T02:06:15;3.93;;;1.00;;
4638;SDS011;2332;38.646;-9.154;2022-10-16T02:08:41;0.73;;;0.70;;
4638;SDS011;2332;38.646;-9.154;2022-10-16T02:11:09;1.20;;;0.80;;
4638;SDS011;2332;38.646;-9.154;2022-10-16T02:16:20;2.20;;;0.77;;
4638;SDS011;2332;38.646;-9.154;2022-10-16T02:18:46;7.20;;;1.73;;
4638;SDS011;2332;38.646;-9.154;2022-10-16T02:21:28;10.93;;;1.80;;
4638;SDS011;2332;38.646;-9.154;2022-10-16T02:26:38;5.03;;;1.33;;
4638;SDS011;2332;38.646;-9.154;2022-10-16T02:29:10;5.40;;;1.00;;
4638;SDS011;2332;38.646;-9.154;2022-10-16T02:31:38;8.17;;;1.93;;
4638;SDS011;2332;38.646;-9.154;2022-10-16T02:34:07;4.87;;;1.17;;
4638;SDS011;2332;38.646;-9.154;2022-10-16T02:36:33;1.30;;;0.70;;
4638;SDS011;2332;38.646;-9.154;2022-10-16T02:39:00;2.27;;;0.70;;
4638;SDS011;2332;38.646;-9.154;2022-10-16T02:41:26;0.80;;;0.80;;
4638;SDS011;2332;38.646;-9.154;2022-10-16T02:43:52;1.37;;;0.60;;
4638;SDS011;2332;38.646;-9.154;2022-10-16T02:46:17;0.60;;;0.60;;
4638;SDS011;2332;38.646;-9.154;2022-10-16T02:48:43;4.20;;;0.70;;
4638;SDS011;2332;38.646;-9.154;2022-10-16T02:51:09;0.60;;;0.60;;
4638;SDS011;2332;38.646;-9.154;2022-10-16T02:53:34;1.37;;;0.80;;
4638;SDS011;2332;38.646;-9.154;2022-10-16T02:56:01;0.70;;;0.70;;
4638;SDS011;2332;38.646;-9.154;2022-10-16T02:58:26;1.53;;;0.80;;
4638;SDS011;2332;38.646;-9.154;2022-10-16T03:00:52;3.17;;;0.83;;
4638;SDS011;2332;38.646;-9.154;2022-10-16T03:03:18;4.33;;;0.90;;
4638;SDS011;2332;38.646;-9.154;2022-10-16T03:05:43;1.87;;;0.90;;
4638;SDS011;2332;38.646;-9.154;2022-10-16T03:08:11;1.40;;;0.90;;
4638;SDS011;2332;38.646;-9.154;2022-10-16T03:10:36;2.83;;;0.93;;
4638;SDS011;2332;38.646;-9.154;2022-10-16T03:13:02;1.90;;;0.87;;
4638;SDS011;2332;38.646;-9.154;2022-10-16T03:15:28;2.00;;;1.00;;
4638;SDS011;2332;38.646;-9.154;2022-10-16T03:17:54;1.53;;;1.00;;
4638;SDS011;2332;38.646;-9.154;2022-10-16T03:20:23;1.37;;;0.90;;
4638;SDS011;2332;38.646;-9.154;2022-10-16T03:22:48;1.20;;;0.97;;
4638;SDS011;2332;38.646;-9.154;2022-10-16T03:25:14;1.37;;;0.90;;
4638;SDS011;2332;38.646;-9.154;2022-10-16T03:27:39;0.70;;;0.70;;
4638;SDS011;2332;38.646;-9.154;2022-10-16T03:30:05;2.30;;;0.80;;
4638;SDS011;2332;38.646;-9.154;2022-10-16T03:32:31;1.73;;;0.90;;
4638;SDS011;2332;38.646;-9.154;2022-10-16T03:34:57;1.03;;;0.90;;
4638;SDS011;2332;38.646;-9.154;2022-10-16T03:37:22;0.73;;;0.73;;
4638;SDS011;2332;38.646;-9.154;2022-10-16T03:39:51;2.17;;;0.90;;
4638;SDS011;2332;38.646;-9.154;2022-10-16T03:42:17;5.13;;;0.90;;
4638;SDS011;2332;38.646;-9.154;2022-10-16T03:44:42;3.40;;;1.20;;
4638;SDS011;2332;38.646;-9.154;2022-10-16T03:47:08;1.10;;;0.90;;
4638;SDS011;2332;38.646;-9.154;2022-10-16T03:49:33;1.50;;;1.03;;
4638;SDS011;2332;38.646;-9.154;2022-10-16T03:52:01;2.03;;;0.93;;
4638;SDS011;2332;38.646;-9.154;2022-10-16T03:54:27;1.17;;;1.00;;
4638;SDS011;2332;38.646;-9.154;2022-10-16T03:56:52;5.03;;;1.20;;
4638;SDS011;2332;38.646;-9.154;2022-10-16T03:59:18;3.03;;;1.10;;
4638;SDS011;2332;38.646;-9.154;2022-10-16T04:01:43;2.30;;;1.10;;
4638;SDS011;2332;38.646;-9.154;2022-10-16T04:04:09;2.93;;;1.67;;
4638;SDS011;2332;38.646;-9.154;2022-10-16T04:06:34;4.57;;;0.97;;
4638;SDS011;2332;38.646;-9.154;2022-10-16T04:09:00;4.20;;;0.80;;
4638;SDS011;2332;38.646;-9.154;2022-10-16T04:11:25;1.50;;;1.40;;
4638;SDS011;2332;38.646;-9.154;2022-10-16T04:13:51;1.30;;;1.20;;
4638;SDS011;2332;38.646;-9.154;2022-10-16T04:16:16;2.40;;;0.90;;
4638;SDS011;2332;38.646;-9.154;2022-10-16T04:18:42;2.50;;;1.30;;
4638;SDS011;2332;38.646;-9.154;2022-10-16T04:21:07;1.07;;;1.00;;
4638;SDS011;2332;38.646;-9.154;2022-10-16T04:23:33;1.93;;;0.90;;
4638;SDS011;2332;38.646;-9.154;2022-10-16T04:25:59;2.30;;;0.90;;
4638;SDS011;2332;38.646;-9.154;2022-10-16T04:28:24;1.10;;;0.83;;
4638;SDS011;2332;38.646;-9.154;2022-10-16T04:30:50;3.07;;;1.10;;
4638;SDS011;2332;38.646;-9.154;2022-10-16T04:33:16;1.47;;;1.00;;
4638;SDS011;2332;38.646;-9.154;2022-10-16T04:35:44;1.13;;;0.90;;
4638;SDS011;2332;38.646;-9.154;2022-10-16T04:38:10;1.50;;;0.80;;
4638;SDS011;2332;38.646;-9.154;2022-10-16T04:40:35;1.73;;;0.90;;
4638;SDS011;2332;38.646;-9.154;2022-10-16T04:43:02;0.90;;;0.87;;
4638;SDS011;2332;38.646;-9.154;2022-10-16T04:45:28;0.97;;;0.70;;
4638;SDS011;2332;38.646;-9.154;2022-10-16T04:47:57;0.90;;;0.90;;
4638;SDS011;2332;38.646;-9.154;2022-10-16T04:50:23;1.33;;;0.80;;
4638;SDS011;2332;38.646;-9.154;2022-10-16T04:52:49;2.70;;;0.90;;
4638;SDS011;2332;38.646;-9.154;2022-10-16T04:55:14;0.80;;;0.80;;
4638;SDS011;2332;38.646;-9.154;2022-10-16T04:57:40;0.67;;;0.67;;
4638;SDS011;2332;38.646;-9.154;2022-10-16T05:00:06;0.63;;;0.63;;
4638;SDS011;2332;38.646;-9.154;2022-10-16T05:02:33;0.80;;;0.80;;
4638;SDS011;2332;38.646;-9.154;2022-10-16T05:04:58;1.10;;;1.00;;
4638;SDS011;2332;38.646;-9.154;2022-10-16T05:07:24;0.60;;;0.60;;
4638;SDS011;2332;38.646;-9.154;2022-10-16T05:09:49;0.80;;;0.80;;
4638;SDS011;2332;38.646;-9.154;2022-10-16T05:12:15;0.70;;;0.70;;
4638;SDS011;2332;38.646;-9.154;2022-10-16T05:14:40;0.80;;;0.80;;
4638;SDS011;2332;38.646;-9.154;2022-10-16T05:17:06;2.07;;;0.70;;
4638;SDS011;2332;38.646;-9.154;2022-10-16T05:19:32;1.10;;;0.90;;
4638;SDS011;2332;38.646;-9.154;2022-10-16T05:21:57;0.83;;;0.83;;
4638;SDS011;2332;38.646;-9.154;2022-10-16T05:24:23;1.43;;;0.80;;
4638;SDS011;2332;38.646;-9.154;2022-10-16T05:26:49;1.83;;;0.77;;
4638;SDS011;2332;38.646;-9.154;2022-10-16T05:29:15;1.47;;;1.00;;
4638;SDS011;2332;38.646;-9.154;2022-10-16T05:31:40;1.83;;;0.90;;
4638;SDS011;2332;38.646;-9.154;2022-10-16T05:34:06;1.40;;;1.30;;
4638;SDS011;2332;38.646;-9.154;2022-10-16T05:36:31;2.70;;;1.53;;
4638;SDS011;2332;38.646;-9.154;2022-10-16T05:38:57;1.97;;;1.10;;
4638;SDS011;2332;38.646;-9.154;2022-10-16T05:41:22;1.33;;;1.20;;
4638;SDS011;2332;38.646;-9.154;2022-10-16T05:43:50;2.50;;;1.37;;
4638;SDS011;2332;38.646;-9.154;2022-10-16T05:46:16;2.67;;;1.03;;
4638;SDS011;2332;38.646;-9.154;2022-10-16T05:48:42;2.03;;;1.40;;
4638;SDS011;2332;38.646;-9.154;2022-10-16T05:51:09;3.80;;;1.50;;
4638;SDS011;2332;38.646;-9.154;2022-10-16T05:53:37;4.13;;;1.17;;
4638;SDS011;2332;38.646;-9.154;2022-10-16T05:56:03;2.90;;;1.23;;
4638;SDS011;2332;38.646;-9.154;2022-10-16T05:58:32;3.63;;;1.40;;
4638;SDS011;2332;38.646;-9.154;2022-10-16T06:01:03;2.50;;;1.50;;
4638;SDS011;2332;38.646;-9.154;2022-10-16T06:03:32;1.70;;;1.03;;
4638;SDS011;2332;38.646;-9.154;2022-10-16T06:05:58;2.30;;;1.53;;
4638;SDS011;2332;38.646;-9.154;2022-10-16T06:08:24;1.87;;;1.37;;
4638;SDS011;2332;38.646;-9.154;2022-10-16T06:11:00;2.83;;;1.70;;
4638;SDS011;2332;38.646;-9.154;2022-10-16T06:13:29;1.83;;;1.40;;
4638;SDS011;2332;38.646;-9.154;2022-10-16T06:15:56;1.63;;;1.53;;
4638;SDS011;2332;38.646;-9.154;2022-10-16T06:18:23;2.80;;;1.90;;
4638;SDS011;2332;38.646;-9.154;2022-10-16T06:20:48;1.57;;;1.50;;
4638;SDS011;2332;38.646;-9.154;2022-10-16T06:23:14;4.20;;;1.90;;
4638;SDS011;2332;38.646;-9.154;2022-10-16T06:25:39;1.63;;;1.50;;
4638;SDS011;2332;38.646;-9.154;2022-10-16T06:28:05;1.60;;;1.50;;
4638;SDS011;2332;38.646;-9.154;2022-10-16T06:30:30;2.43;;;1.60;;
4638;SDS011;2332;38.646;-9.154;2022-10-16T06:32:56;1.83;;;1.70;;
4638;SDS011;2332;38.646;-9.154;2022-10-16T06:35:22;2.83;;;1.53;;
4638;SDS011;2332;38.646;-9.154;2022-10-16T06:37:47;3.27;;;1.80;;
4638;SDS011;2332;38.646;-9.154;2022-10-16T06:40:13;2.03;;;1.70;;
4638;SDS011;2332;38.646;-9.154;2022-10-16T06:42:39;1.93;;;1.53;;
4638;SDS011;2332;38.646;-9.154;2022-10-16T06:45:05;1.90;;;1.80;;
4638;SDS011;2332;38.646;-9.154;2022-10-16T06:47:31;2.50;;;1.33;;
4638;SDS011;2332;38.646;-9.154;2022-10-16T06:49:57;3.30;;;1.93;;
4638;SDS011;2332;38.646;-9.154;2022-10-16T06:52:22;3.60;;;2.10;;
4638;SDS011;2332;38.646;-9.154;2022-10-16T06:54:51;2.10;;;1.90;;
4638;SDS011;2332;38.646;-9.154;2022-10-16T06:57:16;1.93;;;1.77;;
4638;SDS011;2332;38.646;-9.154;2022-10-16T06:59:42;3.03;;;1.90;;
4638;SDS011;2332;38.646;-9.154;2022-10-16T07:02:07;1.77;;;1.67;;
4638;SDS011;2332;38.646;-9.154;2022-10-16T07:04:35;1.60;;;1.50;;
4638;SDS011;2332;38.646;-9.154;2022-10-16T07:07:01;4.23;;;1.90;;
4638;SDS011;2332;38.646;-9.154;2022-10-16T07:09:27;2.30;;;2.10;;
4638;SDS011;2332;38.646;-9.154;2022-10-16T07:11:52;3.73;;;2.17;;
4638;SDS011;2332;38.646;-9.154;2022-10-16T07:14:18;1.87;;;1.63;;
4638;SDS011;2332;38.646;-9.154;2022-10-16T07:16:45;2.30;;;1.90;;
4638;SDS011;2332;38.646;-9.154;2022-10-16T07:19:11;5.60;;;2.20;;
4638;SDS011;2332;38.646;-9.154;2022-10-16T07:21:39;3.33;;;2.40;;
4638;SDS011;2332;38.646;-9.154;2022-10-16T07:24:05;3.13;;;1.67;;
4638;SDS011;2332;38.646;-9.154;2022-10-16T07:26:33;5.20;;;1.83;;
4638;SDS011;2332;38.646;-9.154;2022-10-16T07:28:59;3.63;;;2.17;;
4638;SDS011;2332;38.646;-9.154;2022-10-16T07:31:25;1.93;;;1.70;;
4638;SDS011;2332;38.646;-9.154;2022-10-16T07:33:54;2.93;;;1.33;;
4638;SDS011;2332;38.646;-9.154;2022-10-16T07:36:20;2.70;;;1.43;;
4638;SDS011;2332;38.646;-9.154;2022-10-16T07:38:46;3.57;;;1.60;;
4638;SDS011;2332;38.646;-9.154;2022-10-16T07:41:16;2.03;;;1.50;;
4638;SDS011;2332;38.646;-9.154;2022-10-16T07:43:46;1.53;;;1.43;;
4638;SDS011;2332;38.646;-9.154;2022-10-16T07:46:13;2.03;;;1.20;;
4638;SDS011;2332;38.646;-9.154;2022-10-16T07:48:39;1.37;;;1.27;;
4638;SDS011;2332;38.646;-9.154;2022-10-16T07:51:06;1.37;;;1.27;;
4638;SDS011;2332;38.646;-9.154;2022-10-16T07:53:32;1.30;;;1.20;;
4638;SDS011;2332;38.646;-9.154;2022-10-16T07:55:58;1.00;;;1.00;;
4638;SDS011;2332;38.646;-9.154;2022-10-16T07:58:25;4.00;;;1.43;;
4638;SDS011;2332;38.646;-9.154;2022-10-16T08:00:51;1.40;;;1.23;;
4638;SDS011;2332;38.646;-9.154;2022-10-16T08:03:16;1.20;;;1.00;;
4638;SDS011;2332;38.646;-9.154;2022-10-16T08:05:42;1.30;;;1.20;;
4638;SDS011;2332;38.646;-9.154;2022-10-16T08:08:11;1.50;;;1.40;;
4638;SDS011;2332;38.646;-9.154;2022-10-16T08:10:38;1.30;;;1.20;;
4638;SDS011;2332;38.646;-9.154;2022-10-16T08:13:04;1.20;;;1.20;;
4638;SDS011;2332;38.646;-9.154;2022-10-16T08:15:29;3.83;;;1.60;;
4638;SDS011;2332;38.646;-9.154;2022-10-16T08:17:59;1.30;;;1.20;;
4638;SDS011;2332;38.646;-9.154;2022-10-16T08:20:26;1.10;;;1.10;;
4638;SDS011;2332;38.646;-9.154;2022-10-16T08:22:52;0.77;;;0.77;;
4638;SDS011;2332;38.646;-9.154;2022-10-16T08:25:19;3.23;;;0.90;;
4638;SDS011;2332;38.646;-9.154;2022-10-16T08:27:45;1.17;;;0.87;;
4638;SDS011;2332;38.646;-9.154;2022-10-16T08:30:11;1.03;;;1.00;;
4638;SDS011;2332;38.646;-9.154;2022-10-16T08:32:37;2.90;;;1.67;;
4638;SDS011;2332;38.646;-9.154;2022-10-16T08:35:03;4.53;;;1.10;;
4638;SDS011;2332;38.646;-9.154;2022-10-16T08:37:29;0.80;;;0.80;;
4638;SDS011;2332;38.646;-9.154;2022-10-16T08:39:58;1.27;;;1.00;;
4638;SDS011;2332;38.646;-9.154;2022-10-16T08:45:16;2.93;;;1.10;;
4638;SDS011;2332;38.646;-9.154;2022-10-16T08:50:32;1.40;;;0.77;;
4638;SDS011;2332;38.646;-9.154;2022-10-16T08:52:58;1.00;;;1.00;;
4638;SDS011;2332;38.646;-9.154;2022-10-16T08:58:18;2.50;;;1.30;;
4638;SDS011;2332;38.646;-9.154;2022-10-16T09:00:53;1.70;;;1.53;;
4638;SDS011;2332;38.646;-9.154;2022-10-16T09:03:24;1.70;;;1.27;;
4638;SDS011;2332;38.646;-9.154;2022-10-16T09:11:53;4.43;;;1.20;;
4638;SDS011;2332;38.646;-9.154;2022-10-16T09:14:37;1.77;;;1.40;;
4638;SDS011;2332;38.646;-9.154;2022-10-16T09:20:03;1.77;;;1.67;;
4638;SDS011;2332;38.646;-9.154;2022-10-16T09:25:31;1.50;;;1.40;;
4638;SDS011;2332;38.646;-9.154;2022-10-16T09:27:57;1.50;;;1.40;;
4638;SDS011;2332;38.646;-9.154;2022-10-16T09:30:25;1.20;;;1.10;;
4638;SDS011;2332;38.646;-9.154;2022-10-16T09:32:52;1.60;;;1.30;;
4638;SDS011;2332;38.646;-9.154;2022-10-16T09:35:22;1.77;;;1.67;;
4638;SDS011;2332;38.646;-9.154;2022-10-16T09:37:53;1.53;;;1.47;;
4638;SDS011;2332;38.646;-9.154;2022-10-16T09:40:26;1.60;;;1.50;;
4638;SDS011;2332;38.646;-9.154;2022-10-16T09:45:53;1.30;;;1.20;;
4638;SDS011;2332;38.646;-9.154;2022-10-16T09:51:20;0.90;;;0.90;;
4638;SDS011;2332;38.646;-9.154;2022-10-16T09:53:54;2.33;;;1.17;;
4638;SDS011;2332;38.646;-9.154;2022-10-16T09:56:25;1.30;;;1.20;;
4638;SDS011;2332;38.646;-9.154;2022-10-16T09:58:52;3.00;;;1.00;;
4638;SDS011;2332;38.646;-9.154;2022-10-16T10:01:19;1.20;;;1.00;;
4638;SDS011;2332;38.646;-9.154;2022-10-16T10:03:45;1.37;;;1.00;;
4638;SDS011;2332;38.646;-9.154;2022-10-16T10:06:20;2.00;;;1.10;;
4638;SDS011;2332;38.646;-9.154;2022-10-16T10:09:20;4.43;;;1.00;;
4638;SDS011;2332;38.646;-9.154;2022-10-16T10:11:59;1.23;;;1.13;;
4638;SDS011;2332;38.646;-9.154;2022-10-16T10:14:28;1.30;;;1.30;;
4638;SDS011;2332;38.646;-9.154;2022-10-16T10:17:10;0.97;;;0.90;;
4638;SDS011;2332;38.646;-9.154;2022-10-16T10:19:47;2.50;;;1.40;;
4638;SDS011;2332;38.646;-9.154;2022-10-16T10:35:56;1.80;;;1.13;;
4638;SDS011;2332;38.646;-9.154;2022-10-16T10:38:31;2.30;;;1.00;;
4638;SDS011;2332;38.646;-9.154;2022-10-16T10:43:54;2.80;;;1.07;;
4638;SDS011;2332;38.646;-9.154;2022-10-16T10:46:32;3.00;;;1.20;;
4638;SDS011;2332;38.646;-9.154;2022-10-16T10:51:49;4.33;;;1.23;;
4638;SDS011;2332;38.646;-9.154;2022-10-16T10:59:52;1.27;;;1.10;;
4638;SDS011;2332;38.646;-9.154;2022-10-16T11:07:57;1.10;;;1.00;;
4638;SDS011;2332;38.646;-9.154;2022-10-16T11:10:38;1.10;;;1.00;;
4638;SDS011;2332;38.646;-9.154;2022-10-16T11:13:19;4.53;;;1.00;;
4638;SDS011;2332;38.646;-9.154;2022-10-16T11:15:50;0.80;;;0.80;;
4638;SDS011;2332;38.646;-9.154;2022-10-16T11:20:49;0.77;;;0.77;;
4638;SDS011;2332;38.646;-9.154;2022-10-16T11:25:43;1.10;;;0.90;;
4638;SDS011;2332;38.646;-9.154;2022-10-16T11:28:14;0.70;;;0.63;;
4638;SDS011;2332;38.646;-9.154;2022-10-16T11:30:52;2.20;;;0.67;;
4638;SDS011;2332;38.646;-9.154;2022-10-16T11:33:39;1.40;;;1.40;;
4638;SDS011;2332;38.646;-9.154;2022-10-16T11:36:26;0.90;;;0.80;;
4638;SDS011;2332;38.646;-9.154;2022-10-16T11:41:44;0.73;;;0.70;;
4638;SDS011;2332;38.646;-9.154;2022-10-16T11:47:12;1.20;;;0.70;;
4638;SDS011;2332;38.646;-9.154;2022-10-16T11:49:41;0.80;;;0.80;;
4638;SDS011;2332;38.646;-9.154;2022-10-16T11:52:17;0.90;;;0.90;;
4638;SDS011;2332;38.646;-9.154;2022-10-16T11:57:17;4.00;;;1.13;;
4638;SDS011;2332;38.646;-9.154;2022-10-16T11:59:48;0.90;;;0.60;;
4638;SDS011;2332;38.646;-9.154;2022-10-16T12:02:33;2.67;;;0.80;;
4638;SDS011;2332;38.646;-9.154;2022-10-16T12:05:28;1.20;;;1.10;;
4638;SDS011;2332;38.646;-9.154;2022-10-16T12:08:14;1.80;;;0.90;;
4638;SDS011;2332;38.646;-9.154;2022-10-16T12:10:41;1.40;;;0.97;;
4638;SDS011;2332;38.646;-9.154;2022-10-16T12:18:37;2.10;;;0.90;;
4638;SDS011;2332;38.646;-9.154;2022-10-16T12:21:07;0.70;;;0.70;;
4638;SDS011;2332;38.646;-9.154;2022-10-16T12:23:36;1.07;;;0.97;;
4638;SDS011;2332;38.646;-9.154;2022-10-16T12:26:03;0.97;;;0.90;;
4638;SDS011;2332;38.646;-9.154;2022-10-16T12:28:30;0.80;;;0.80;;
4638;SDS011;2332;38.646;-9.154;2022-10-16T12:31:05;1.07;;;1.03;;
4638;SDS011;2332;38.646;-9.154;2022-10-16T12:33:36;1.23;;;1.10;;
4638;SDS011;2332;38.646;-9.154;2022-10-16T12:36:09;1.23;;;1.07;;
4638;SDS011;2332;38.646;-9.154;2022-10-16T12:38:50;2.17;;;1.10;;
4638;SDS011;2332;38.646;-9.154;2022-10-16T12:41:32;1.40;;;1.30;;
4638;SDS011;2332;38.646;-9.154;2022-10-16T12:44:00;1.70;;;1.07;;
4638;SDS011;2332;38.646;-9.154;2022-10-16T12:49:04;2.40;;;1.80;;
4638;SDS011;2332;38.646;-9.154;2022-10-16T12:51:52;1.17;;;1.10;;
4638;SDS011;2332;38.646;-9.154;2022-10-16T12:54:19;5.03;;;1.30;;
4638;SDS011;2332;38.646;-9.154;2022-10-16T13:05:23;1.23;;;1.00;;
4638;SDS011;2332;38.646;-9.154;2022-10-16T13:08:53;1.63;;;1.00;;
4638;SDS011;2332;38.646;-9.154;2022-10-16T13:11:25;2.30;;;1.27;;
4638;SDS011;2332;38.646;-9.154;2022-10-16T13:20:29;1.13;;;1.03;;
4638;SDS011;2332;38.646;-9.154;2022-10-16T13:25:43;2.00;;;1.00;;
4638;SDS011;2332;38.646;-9.154;2022-10-16T13:28:17;1.60;;;0.90;;
4638;SDS011;2332;38.646;-9.154;2022-10-16T13:30:53;1.00;;;1.00;;
4638;SDS011;2332;38.646;-9.154;2022-10-16T13:33:41;3.37;;;1.03;;
4638;SDS011;2332;38.646;-9.154;2022-10-16T13:36:17;1.70;;;1.00;;
4638;SDS011;2332;38.646;-9.154;2022-10-16T13:38:45;1.47;;;1.23;;
4638;SDS011;2332;38.646;-9.154;2022-10-16T13:41:15;1.07;;;0.80;;
4638;SDS011;2332;38.646;-9.154;2022-10-16T13:44:00;0.80;;;0.80;;
4638;SDS011;2332;38.646;-9.154;2022-10-16T13:46:25;0.93;;;0.93;;
4638;SDS011;2332;38.646;-9.154;2022-10-16T13:49:02;0.97;;;0.90;;
4638;SDS011;2332;38.646;-9.154;2022-10-16T13:51:29;1.57;;;1.03;;
4638;SDS011;2332;38.646;-9.154;2022-10-16T13:53:56;1.10;;;1.00;;
4638;SDS011;2332;38.646;-9.154;2022-10-16T13:56:22;0.90;;;0.90;;
4638;SDS011;2332;38.646;-9.154;2022-10-16T13:59:00;0.90;;;0.67;;
4638;SDS011;2332;38.646;-9.154;2022-10-16T14:01:31;0.90;;;0.90;;
4638;SDS011;2332;38.646;-9.154;2022-10-16T14:04:11;4.50;;;0.93;;
4638;SDS011;2332;38.646;-9.154;2022-10-16T14:06:40;1.50;;;1.20;;
4638;SDS011;2332;38.646;-9.154;2022-10-16T14:09:07;1.07;;;1.00;;
4638;SDS011;2332;38.646;-9.154;2022-10-16T14:11:41;2.10;;;0.90;;
4638;SDS011;2332;38.646;-9.154;2022-10-16T14:14:19;1.00;;;1.00;;
4638;SDS011;2332;38.646;-9.154;2022-10-16T14:16:45;1.30;;;0.97;;
4638;SDS011;2332;38.646;-9.154;2022-10-16T14:19:29;1.90;;;1.10;;
4638;SDS011;2332;38.646;-9.154;2022-10-16T14:21:56;1.43;;;0.87;;
4638;SDS011;2332;38.646;-9.154;2022-10-16T14:24:27;3.50;;;1.47;;
4638;SDS011;2332;38.646;-9.154;2022-10-16T14:26:56;1.50;;;1.10;;
4638;SDS011;2332;38.646;-9.154;2022-10-16T14:29:22;1.23;;;1.17;;
4638;SDS011;2332;38.646;-9.154;2022-10-16T14:32:02;2.87;;;0.90;;
4638;SDS011;2332;38.646;-9.154;2022-10-16T14:34:36;1.60;;;1.23;;
4638;SDS011;2332;38.646;-9.154;2022-10-16T14:39:33;1.57;;;1.47;;
4638;SDS011;2332;38.646;-9.154;2022-10-16T14:41:59;2.40;;;1.20;;
4638;SDS011;2332;38.646;-9.154;2022-10-16T14:44:27;2.30;;;1.10;;
4638;SDS011;2332;38.646;-9.154;2022-10-16T14:46:54;0.93;;;0.90;;
4638;SDS011;2332;38.646;-9.154;2022-10-16T14:49:20;1.20;;;1.10;;
4638;SDS011;2332;38.646;-9.154;2022-10-16T14:51:53;1.43;;;1.00;;
4638;SDS011;2332;38.646;-9.154;2022-10-16T14:54:19;1.10;;;1.00;;
4638;SDS011;2332;38.646;-9.154;2022-10-16T14:59:39;0.80;;;0.80;;
4638;SDS011;2332;38.646;-9.154;2022-10-16T15:04:53;0.87;;;0.87;;
4638;SDS011;2332;38.646;-9.154;2022-10-16T15:07:20;0.80;;;0.80;;
4638;SDS011;2332;38.646;-9.154;2022-10-16T15:09:45;1.00;;;0.90;;
4638;SDS011;2332;38.646;-9.154;2022-10-16T15:12:11;0.93;;;0.93;;
4638;SDS011;2332;38.646;-9.154;2022-10-16T15:14:36;4.30;;;1.20;;
4638;SDS011;2332;38.646;-9.154;2022-10-16T15:17:02;1.73;;;0.97;;
4638;SDS011;2332;38.646;-9.154;2022-10-16T15:19:28;7.37;;;0.90;;
4638;SDS011;2332;38.646;-9.154;2022-10-16T15:21:53;0.70;;;0.70;;
4638;SDS011;2332;38.646;-9.154;2022-10-16T15:24:19;4.40;;;1.30;;
4638;SDS011;2332;38.646;-9.154;2022-10-16T15:26:44;1.00;;;0.90;;
4638;SDS011;2332;38.646;-9.154;2022-10-16T15:29:13;1.33;;;1.10;;
4638;SDS011;2332;38.646;-9.154;2022-10-16T15:31:39;1.00;;;1.00;;
4638;SDS011;2332;38.646;-9.154;2022-10-16T15:34:10;2.70;;;0.90;;
4638;SDS011;2332;38.646;-9.154;2022-10-16T15:36:36;1.27;;;1.17;;
4638;SDS011;2332;38.646;-9.154;2022-10-16T15:39:13;1.23;;;1.00;;
4638;SDS011;2332;38.646;-9.154;2022-10-16T15:41:39;0.87;;;0.80;;
4638;SDS011;2332;38.646;-9.154;2022-10-16T15:44:06;1.33;;;1.20;;
4638;SDS011;2332;38.646;-9.154;2022-10-16T15:46:32;1.43;;;1.33;;
4638;SDS011;2332;38.646;-9.154;2022-10-16T15:48:59;2.50;;;1.20;;
4638;SDS011;2332;38.646;-9.154;2022-10-16T15:51:25;1.00;;;1.00;;
4638;SDS011;2332;38.646;-9.154;2022-10-16T15:53:55;1.00;;;1.00;;
4638;SDS011;2332;38.646;-9.154;2022-10-16T15:56:21;1.00;;;1.00;;
4638;SDS011;2332;38.646;-9.154;2022-10-16T15:58:47;2.07;;;1.30;;
4638;SDS011;2332;38.646;-9.154;2022-10-16T16:01:13;1.93;;;1.60;;
4638;SDS011;2332;38.646;-9.154;2022-10-16T16:03:41;1.30;;;1.20;;
4638;SDS011;2332;38.646;-9.154;2022-10-16T16:06:08;2.83;;;1.23;;
4638;SDS011;2332;38.646;-9.154;2022-10-16T16:08:35;3.63;;;1.37;;
4638;SDS011;2332;38.646;-9.154;2022-10-16T16:11:02;3.87;;;1.40;;
4638;SDS011;2332;38.646;-9.154;2022-10-16T16:13:32;1.20;;;1.20;;
4638;SDS011;2332;38.646;-9.154;2022-10-16T16:15:57;3.23;;;1.33;;
4638;SDS011;2332;38.646;-9.154;2022-10-16T16:18:23;1.83;;;1.70;;
4638;SDS011;2332;38.646;-9.154;2022-10-16T16:20:50;1.93;;;1.60;;
4638;SDS011;2332;38.646;-9.154;2022-10-16T16:23:19;2.57;;;2.37;;
4638;SDS011;2332;38.646;-9.154;2022-10-16T16:25:45;4.07;;;2.63;;
4638;SDS011;2332;38.646;-9.154;2022-10-16T16:28:10;2.10;;;2.00;;
4638;SDS011;2332;38.646;-9.154;2022-10-16T16:30:39;3.90;;;2.33;;
4638;SDS011;2332;38.646;-9.154;2022-10-16T16:33:06;3.73;;;1.97;;
4638;SDS011;2332;38.646;-9.154;2022-10-16T16:35:31;5.60;;;1.93;;
4638;SDS011;2332;38.646;-9.154;2022-10-16T16:37:57;2.00;;;1.77;;
4638;SDS011;2332;38.646;-9.154;2022-10-16T16:40:22;1.83;;;1.73;;
4638;SDS011;2332;38.646;-9.154;2022-10-16T16:42:51;6.67;;;1.87;;
4638;SDS011;2332;38.646;-9.154;2022-10-16T16:45:17;6.57;;;1.70;;
4638;SDS011;2332;38.646;-9.154;2022-10-16T16:47:43;2.00;;;1.87;;
4638;SDS011;2332;38.646;-9.154;2022-10-16T16:50:08;2.53;;;1.77;;
4638;SDS011;2332;38.646;-9.154;2022-10-16T16:52:34;1.80;;;1.60;;
4638;SDS011;2332;38.646;-9.154;2022-10-16T16:55:00;2.30;;;1.77;;
4638;SDS011;2332;38.646;-9.154;2022-10-16T16:57:26;3.47;;;1.70;;
4638;SDS011;2332;38.646;-9.154;2022-10-16T16:59:51;2.17;;;1.97;;
4638;SDS011;2332;38.646;-9.154;2022-10-16T17:02:17;6.10;;;1.80;;
4638;SDS011;2332;38.646;-9.154;2022-10-16T17:04:43;5.60;;;1.50;;
4638;SDS011;2332;38.646;-9.154;2022-10-16T17:07:08;4.50;;;2.30;;
4638;SDS011;2332;38.646;-9.154;2022-10-16T17:09:34;2.50;;;1.83;;
4638;SDS011;2332;38.646;-9.154;2022-10-16T17:11:59;2.90;;;2.00;;
4638;SDS011;2332;38.646;-9.154;2022-10-16T17:14:25;6.87;;;2.13;;